sensor_id;sensor_type;location;lat;lon;timestamp;temperature;humidity
65235;DHT22;51820;48.374;10.930;2023-02-26T00:07:01;3.20;66.90
65235;DHT22;51820;48.374;10.930;2023-02-26T00:12:00;3.10;67.00
65235;DHT22;51820;48.374;10.930;2023-02-26T00:17:23;3.10;66.30
65235;DHT22;51820;48.374;10.930;2023-02-26T00:22:24;6.00;68.90
65235;DHT22;51820;48.374;10.930;2023-02-26T00:34:49;2.90;65.00
65235;DHT22;51820;48.374;10.930;2023-02-26T00:37:30;2.90;64.70
65235;DHT22;51820;48.374;10.930;2023-02-26T00:40:14;2.80;64.70
65235;DHT22;51820;48.374;10.930;2023-02-26T00:47:48;2.70;65.10
65235;DHT22;51820;48.374;10.930;2023-02-26T00:50:19;2.70;64.70
65235;DHT22;51820;48.374;10.930;2023-02-26T00:53:00;2.70;65.00
65235;DHT22;51820;48.374;10.930;2023-02-26T00:55:30;2.70;64.90
65235;DHT22;51820;48.374;10.930;2023-02-26T01:08:01;2.60;64.80
65235;DHT22;51820;48.374;10.930;2023-02-26T01:10:33;2.60;64.80
65235;DHT22;51820;48.374;10.930;2023-02-26T01:13:02;4.30;95.40
65235;DHT22;51820;48.374;10.930;2023-02-26T01:15:31;2.60;65.00
65235;DHT22;51820;48.374;10.930;2023-02-26T01:18:04;2.60;64.90
65235;DHT22;51820;48.374;10.930;2023-02-26T01:20:42;2.60;65.00
65235;DHT22;51820;48.374;10.930;2023-02-26T01:23:17;2.60;65.50
65235;DHT22;51820;48.374;10.930;2023-02-26T01:25:49;2.60;64.20
65235;DHT22;51820;48.374;10.930;2023-02-26T01:28:21;2.60;65.60
65235;DHT22;51820;48.374;10.930;2023-02-26T01:30:50;2.50;64.30
65235;DHT22;51820;48.374;10.930;2023-02-26T01:33:23;2.50;64.70
65235;DHT22;51820;48.374;10.930;2023-02-26T01:35:54;2.40;64.90
65235;DHT22;51820;48.374;10.930;2023-02-26T01:38:35;2.40;65.40
65235;DHT22;51820;48.374;10.930;2023-02-26T01:41:24;4.40;95.60
65235;DHT22;51820;48.374;10.930;2023-02-26T01:44:04;2.40;64.80
65235;DHT22;51820;48.374;10.930;2023-02-26T01:46:59;2.40;64.80
65235;DHT22;51820;48.374;10.930;2023-02-26T01:49:33;2.10;64.90
65235;DHT22;51820;48.374;10.930;2023-02-26T01:52:02;2.40;64.90
65235;DHT22;51820;48.374;10.930;2023-02-26T01:54:35;0.30;63.40
65235;DHT22;51820;48.374;10.930;2023-02-26T01:57:07;2.40;64.70
65235;DHT22;51820;48.374;10.930;2023-02-26T01:59:40;2.40;64.70
65235;DHT22;51820;48.374;10.930;2023-02-26T02:02:11;2.40;64.70
65235;DHT22;51820;48.374;10.930;2023-02-26T02:09:40;2.30;64.50
65235;DHT22;51820;48.374;10.930;2023-02-26T02:12:20;2.30;64.60
65235;DHT22;51820;48.374;10.930;2023-02-26T02:14:59;2.20;64.30
65235;DHT22;51820;48.374;10.930;2023-02-26T02:17:39;2.20;64.50
65235;DHT22;51820;48.374;10.930;2023-02-26T02:20:35;2.20;64.30
65235;DHT22;51820;48.374;10.930;2023-02-26T02:23:14;2.20;66.40
65235;DHT22;51820;48.374;10.930;2023-02-26T02:29:33;2.10;64.20
65235;DHT22;51820;48.374;10.930;2023-02-26T02:32:09;4.90;66.40
65235;DHT22;51820;48.374;10.930;2023-02-26T02:34:42;3.00;64.90
65235;DHT22;51820;48.374;10.930;2023-02-26T02:37:17;2.10;67.60
65235;DHT22;51820;48.374;10.930;2023-02-26T02:39:50;2.10;64.10
65235;DHT22;51820;48.374;10.930;2023-02-26T02:42:24;2.10;64.00
65235;DHT22;51820;48.374;10.930;2023-02-26T02:44:57;2.00;65.30
65235;DHT22;51820;48.374;10.930;2023-02-26T02:47:30;2.00;64.30
65235;DHT22;51820;48.374;10.930;2023-02-26T02:50:07;-1.10;62.60
65235;DHT22;51820;48.374;10.930;2023-02-26T02:52:41;2.00;64.10
65235;DHT22;51820;48.374;10.930;2023-02-26T02:55:15;2.00;64.10
65235;DHT22;51820;48.374;10.930;2023-02-26T02:57:48;2.00;63.90
65235;DHT22;51820;48.374;10.930;2023-02-26T03:00:20;2.00;63.90
65235;DHT22;51820;48.374;10.930;2023-02-26T03:02:55;2.00;64.70
65235;DHT22;51820;48.374;10.930;2023-02-26T03:05:26;2.00;63.60
65235;DHT22;51820;48.374;10.930;2023-02-26T03:07:57;2.00;63.40
65235;DHT22;51820;48.374;10.930;2023-02-26T03:15:32;1.90;64.00
65235;DHT22;51820;48.374;10.930;2023-02-26T03:18:13;1.90;63.50
65235;DHT22;51820;48.374;10.930;2023-02-26T03:20:53;1.90;67.50
65235;DHT22;51820;48.374;10.930;2023-02-26T03:23:28;1.90;63.50
65235;DHT22;51820;48.374;10.930;2023-02-26T03:26:04;1.50;63.40
65235;DHT22;51820;48.374;10.930;2023-02-26T03:28:43;1.90;66.60
65235;DHT22;51820;48.374;10.930;2023-02-26T03:31:17;1.90;63.30
65235;DHT22;51820;48.374;10.930;2023-02-26T03:33:51;4.90;65.20
65235;DHT22;51820;48.374;10.930;2023-02-26T03:36:26;1.80;62.80
65235;DHT22;51820;48.374;10.930;2023-02-26T03:39:10;2.50;63.50
65235;DHT22;51820;48.374;10.930;2023-02-26T03:41:44;1.70;63.30
65235;DHT22;51820;48.374;10.930;2023-02-26T03:44:19;1.80;63.20
65235;DHT22;51820;48.374;10.930;2023-02-26T03:46:54;1.80;63.10
65235;DHT22;51820;48.374;10.930;2023-02-26T03:49:33;1.80;63.00
65235;DHT22;51820;48.374;10.930;2023-02-26T03:54:54;1.70;63.00
65235;DHT22;51820;48.374;10.930;2023-02-26T04:00:37;1.40;62.80
65235;DHT22;51820;48.374;10.930;2023-02-26T04:03:13;1.70;63.60
65235;DHT22;51820;48.374;10.930;2023-02-26T04:05:49;1.60;63.90
65235;DHT22;51820;48.374;10.930;2023-02-26T04:08:20;1.70;63.90
65235;DHT22;51820;48.374;10.930;2023-02-26T04:10:52;1.60;62.50
65235;DHT22;51820;48.374;10.930;2023-02-26T04:18:22;1.70;62.50
65235;DHT22;51820;48.374;10.930;2023-02-26T04:20:52;1.70;62.80
65235;DHT22;51820;48.374;10.930;2023-02-26T04:38:21;1.60;62.60
65235;DHT22;51820;48.374;10.930;2023-02-26T04:53:27;1.50;62.00
65235;DHT22;51820;48.374;10.930;2023-02-26T05:10:54;1.40;61.50
65235;DHT22;51820;48.374;10.930;2023-02-26T05:15:57;1.40;61.80
65235;DHT22;51820;48.374;10.930;2023-02-26T05:25:55;1.30;62.60
65235;DHT22;51820;48.374;10.930;2023-02-26T05:30:55;1.30;62.00
65235;DHT22;51820;48.374;10.930;2023-02-26T05:33:24;1.30;62.70
65235;DHT22;51820;48.374;10.930;2023-02-26T05:40:56;1.20;61.90
65235;DHT22;51820;48.374;10.930;2023-02-26T05:43:25;1.20;61.90
65235;DHT22;51820;48.374;10.930;2023-02-26T05:55:52;1.20;62.20
65235;DHT22;51820;48.374;10.930;2023-02-26T05:58:22;1.20;62.10
65235;DHT22;51820;48.374;10.930;2023-02-26T06:15:43;0.90;63.20
65235;DHT22;51820;48.374;10.930;2023-02-26T06:33:05;0.80;62.60
65235;DHT22;51820;48.374;10.930;2023-02-26T06:38:03;0.70;62.80
65235;DHT22;51820;48.374;10.930;2023-02-26T06:50:26;0.60;63.40
65235;DHT22;51820;48.374;10.930;2023-02-26T07:07:49;0.60;63.20
65235;DHT22;51820;48.374;10.930;2023-02-26T07:22:50;0.70;62.60
65235;DHT22;51820;48.374;10.930;2023-02-26T07:40:17;0.80;62.80
65235;DHT22;51820;48.374;10.930;2023-02-26T07:57:40;-1.10;61.70
65235;DHT22;51820;48.374;10.930;2023-02-26T08:00:09;1.00;64.80
65235;DHT22;51820;48.374;10.930;2023-02-26T08:02:41;5.00;65.00
65235;DHT22;51820;48.374;10.930;2023-02-26T08:10:07;1.00;65.90
65235;DHT22;51820;48.374;10.930;2023-02-26T08:15:09;4.00;64.60
65235;DHT22;51820;48.374;10.930;2023-02-26T08:20:11;3.70;65.80
65235;DHT22;51820;48.374;10.930;2023-02-26T08:27:38;4.10;68.20
65235;DHT22;51820;48.374;10.930;2023-02-26T08:30:11;3.60;64.90
65235;DHT22;51820;48.374;10.930;2023-02-26T08:35:08;1.20;63.20
65235;DHT22;51820;48.374;10.930;2023-02-26T08:40:07;4.50;64.90
65235;DHT22;51820;48.374;10.930;2023-02-26T08:45:06;1.30;62.70
65235;DHT22;51820;48.374;10.930;2023-02-26T08:47:36;1.30;62.90
65235;DHT22;51820;48.374;10.930;2023-02-26T09:02:45;1.40;64.50
65235;DHT22;51820;48.374;10.930;2023-02-26T09:05:14;1.40;65.10
65235;DHT22;51820;48.374;10.930;2023-02-26T09:07:43;1.40;66.50
65235;DHT22;51820;48.374;10.930;2023-02-26T09:10:12;1.50;66.60
65235;DHT22;51820;48.374;10.930;2023-02-26T09:15:10;1.60;66.90
65235;DHT22;51820;48.374;10.930;2023-02-26T09:20:12;1.70;67.50
65235;DHT22;51820;48.374;10.930;2023-02-26T09:25:09;1.80;66.50
65235;DHT22;51820;48.374;10.930;2023-02-26T09:30:07;1.90;66.10
65235;DHT22;51820;48.374;10.930;2023-02-26T09:37:34;1.80;65.50
65235;DHT22;51820;48.374;10.930;2023-02-26T09:40:03;1.80;65.30
65235;DHT22;51820;48.374;10.930;2023-02-26T09:42:43;1.70;65.00
65235;DHT22;51820;48.374;10.930;2023-02-26T09:45:21;1.80;64.30
65235;DHT22;51820;48.374;10.930;2023-02-26T09:48:20;5.20;95.60
65235;DHT22;51820;48.374;10.930;2023-02-26T09:50:52;1.70;64.50
65235;DHT22;51820;48.374;10.930;2023-02-26T09:53:25;1.60;64.50
65235;DHT22;51820;48.374;10.930;2023-02-26T09:56:02;1.60;65.00
65235;DHT22;51820;48.374;10.930;2023-02-26T09:58:36;1.70;65.10
65235;DHT22;51820;48.374;10.930;2023-02-26T10:01:12;1.70;64.70
65235;DHT22;51820;48.374;10.930;2023-02-26T10:03:54;1.70;65.00
65235;DHT22;51820;48.374;10.930;2023-02-26T10:06:27;1.70;64.60
65235;DHT22;51820;48.374;10.930;2023-02-26T10:09:06;1.70;64.60
65235;DHT22;51820;48.374;10.930;2023-02-26T10:11:45;1.70;64.70
65235;DHT22;51820;48.374;10.930;2023-02-26T10:14:17;1.70;64.30
65235;DHT22;51820;48.374;10.930;2023-02-26T10:16:53;1.70;64.50
65235;DHT22;51820;48.374;10.930;2023-02-26T10:19:26;1.60;64.90
65235;DHT22;51820;48.374;10.930;2023-02-26T10:21:59;1.70;64.60
65235;DHT22;51820;48.374;10.930;2023-02-26T10:24:37;1.80;64.50
65235;DHT22;51820;48.374;10.930;2023-02-26T10:27:11;1.70;64.20
65235;DHT22;51820;48.374;10.930;2023-02-26T10:29:47;1.80;64.50
65235;DHT22;51820;48.374;10.930;2023-02-26T10:32:24;1.80;64.80
65235;DHT22;51820;48.374;10.930;2023-02-26T10:34:56;1.90;64.50
65235;DHT22;51820;48.374;10.930;2023-02-26T10:37:36;1.90;64.70
65235;DHT22;51820;48.374;10.930;2023-02-26T10:40:12;2.00;65.00
65235;DHT22;51820;48.374;10.930;2023-02-26T10:42:46;2.00;64.90
65235;DHT22;51820;48.374;10.930;2023-02-26T10:45:27;2.00;64.80
65235;DHT22;51820;48.374;10.930;2023-02-26T10:48:13;2.10;64.30
65235;DHT22;51820;48.374;10.930;2023-02-26T10:50:48;2.10;64.50
65235;DHT22;51820;48.374;10.930;2023-02-26T10:55:50;2.10;64.70
65235;DHT22;51820;48.374;10.930;2023-02-26T10:58:22;2.10;64.80
65235;DHT22;51820;48.374;10.930;2023-02-26T11:00:52;2.20;65.40
65235;DHT22;51820;48.374;10.930;2023-02-26T11:03:26;2.20;64.40
65235;DHT22;51820;48.374;10.930;2023-02-26T11:08:26;2.20;65.70
65235;DHT22;51820;48.374;10.930;2023-02-26T11:10:58;2.30;65.00
65235;DHT22;51820;48.374;10.930;2023-02-26T11:13:31;2.20;64.90
65235;DHT22;51820;48.374;10.930;2023-02-26T11:16:04;2.30;65.00
65235;DHT22;51820;48.374;10.930;2023-02-26T11:18:38;2.20;65.60
65235;DHT22;51820;48.374;10.930;2023-02-26T11:21:12;2.30;65.90
65235;DHT22;51820;48.374;10.930;2023-02-26T11:23:45;2.30;66.40
65235;DHT22;51820;48.374;10.930;2023-02-26T11:26:16;2.40;66.80
65235;DHT22;51820;48.374;10.930;2023-02-26T11:28:46;2.50;67.00
65235;DHT22;51820;48.374;10.930;2023-02-26T11:31:17;2.50;67.40
65235;DHT22;51820;48.374;10.930;2023-02-26T11:33:48;2.60;68.20
65235;DHT22;51820;48.374;10.930;2023-02-26T11:36:19;2.80;67.30
65235;DHT22;51820;48.374;10.930;2023-02-26T11:38:52;3.00;66.70
65235;DHT22;51820;48.374;10.930;2023-02-26T11:41:24;3.20;65.50
65235;DHT22;51820;48.374;10.930;2023-02-26T11:43:59;3.30;64.20
65235;DHT22;51820;48.374;10.930;2023-02-26T11:49:00;3.30;62.40
65235;DHT22;51820;48.374;10.930;2023-02-26T11:53:58;3.30;62.60
65235;DHT22;51820;48.374;10.930;2023-02-26T11:56:40;3.30;61.30
65235;DHT22;51820;48.374;10.930;2023-02-26T11:59:20;3.30;60.50
65235;DHT22;51820;48.374;10.930;2023-02-26T12:01:49;3.20;59.00
65235;DHT22;51820;48.374;10.930;2023-02-26T12:04:20;3.20;59.20
65235;DHT22;51820;48.374;10.930;2023-02-26T12:06:51;3.10;59.80
65235;DHT22;51820;48.374;10.930;2023-02-26T12:09:20;3.10;59.70
65235;DHT22;51820;48.374;10.930;2023-02-26T12:12:08;3.00;59.20
65235;DHT22;51820;48.374;10.930;2023-02-26T12:14:58;3.00;59.40
65235;DHT22;51820;48.374;10.930;2023-02-26T12:17:41;3.00;59.00
65235;DHT22;51820;48.374;10.930;2023-02-26T12:20:19;3.00;59.10
65235;DHT22;51820;48.374;10.930;2023-02-26T12:22:50;3.00;60.00
65235;DHT22;51820;48.374;10.930;2023-02-26T12:25:31;3.10;59.40
65235;DHT22;51820;48.374;10.930;2023-02-26T12:28:30;3.20;59.80
65235;DHT22;51820;48.374;10.930;2023-02-26T12:34:20;3.60;59.70
65235;DHT22;51820;48.374;10.930;2023-02-26T12:37:13;3.70;58.30
65235;DHT22;51820;48.374;10.930;2023-02-26T12:40:08;3.70;57.20
65235;DHT22;51820;48.374;10.930;2023-02-26T12:42:50;3.70;58.20
65235;DHT22;51820;48.374;10.930;2023-02-26T12:45:55;3.60;58.60
65235;DHT22;51820;48.374;10.930;2023-02-26T12:48:58;3.40;58.60
65235;DHT22;51820;48.374;10.930;2023-02-26T12:51:52;3.30;58.40
65235;DHT22;51820;48.374;10.930;2023-02-26T12:54:36;3.20;58.50
65235;DHT22;51820;48.374;10.930;2023-02-26T12:57:41;3.20;59.50
65235;DHT22;51820;48.374;10.930;2023-02-26T13:00:21;3.20;59.50
65235;DHT22;51820;48.374;10.930;2023-02-26T13:03:26;3.30;59.70
65235;DHT22;51820;48.374;10.930;2023-02-26T13:06:44;3.30;59.50
65235;DHT22;51820;48.374;10.930;2023-02-26T13:09:29;3.30;59.10
65235;DHT22;51820;48.374;10.930;2023-02-26T13:12:14;3.40;59.20
65235;DHT22;51820;48.374;10.930;2023-02-26T13:14:53;3.40;58.10
65235;DHT22;51820;48.374;10.930;2023-02-26T13:17:40;6.10;59.80
65235;DHT22;51820;48.374;10.930;2023-02-26T13:20:17;3.40;58.20
65235;DHT22;51820;48.374;10.930;2023-02-26T13:22:58;5.40;59.80
65235;DHT22;51820;48.374;10.930;2023-02-26T13:25:34;3.60;57.60
65235;DHT22;51820;48.374;10.930;2023-02-26T13:28:21;3.80;57.70
65235;DHT22;51820;48.374;10.930;2023-02-26T13:31:03;4.80;58.00
65235;DHT22;51820;48.374;10.930;2023-02-26T13:36:06;5.40;55.60
65235;DHT22;51820;48.374;10.930;2023-02-26T13:38:44;4.40;51.80
65235;DHT22;51820;48.374;10.930;2023-02-26T13:41:18;4.40;51.50
65235;DHT22;51820;48.374;10.930;2023-02-26T13:44:01;4.40;51.10
65235;DHT22;51820;48.374;10.930;2023-02-26T13:46:51;4.40;51.40
65235;DHT22;51820;48.374;10.930;2023-02-26T13:49:29;4.50;55.10
65235;DHT22;51820;48.374;10.930;2023-02-26T13:52:00;4.60;51.10
65235;DHT22;51820;48.374;10.930;2023-02-26T13:54:34;4.60;49.60
65235;DHT22;51820;48.374;10.930;2023-02-26T13:57:22;4.50;49.00
65235;DHT22;51820;48.374;10.930;2023-02-26T13:59:56;4.40;48.70
65235;DHT22;51820;48.374;10.930;2023-02-26T14:02:44;4.30;49.20
65235;DHT22;51820;48.374;10.930;2023-02-26T14:05:29;4.30;49.30
65235;DHT22;51820;48.374;10.930;2023-02-26T14:11:26;4.20;49.20
65235;DHT22;51820;48.374;10.930;2023-02-26T14:14:18;4.10;49.30
65235;DHT22;51820;48.374;10.930;2023-02-26T14:16:54;4.10;50.40
65235;DHT22;51820;48.374;10.930;2023-02-26T14:19:27;4.10;51.20
65235;DHT22;51820;48.374;10.930;2023-02-26T14:22:01;4.10;52.30
65235;DHT22;51820;48.374;10.930;2023-02-26T14:24:54;4.10;52.90
65235;DHT22;51820;48.374;10.930;2023-02-26T14:27:34;7.30;90.20
65235;DHT22;51820;48.374;10.930;2023-02-26T14:30:16;4.20;53.10
65235;DHT22;51820;48.374;10.930;2023-02-26T14:32:48;4.30;55.00
65235;DHT22;51820;48.374;10.930;2023-02-26T14:35:23;4.30;52.70
65235;DHT22;51820;48.374;10.930;2023-02-26T14:37:57;4.40;52.20
65235;DHT22;51820;48.374;10.930;2023-02-26T14:40:37;4.30;52.10
65235;DHT22;51820;48.374;10.930;2023-02-26T14:43:14;4.30;52.20
65235;DHT22;51820;48.374;10.930;2023-02-26T14:45:46;4.10;53.60
65235;DHT22;51820;48.374;10.930;2023-02-26T14:48:21;4.20;51.20
65235;DHT22;51820;48.374;10.930;2023-02-26T14:51:11;4.20;50.70
65235;DHT22;51820;48.374;10.930;2023-02-26T14:54:06;4.20;50.40
65235;DHT22;51820;48.374;10.930;2023-02-26T14:56:51;4.20;50.00
65235;DHT22;51820;48.374;10.930;2023-02-26T14:59:35;-0.40;50.20
65235;DHT22;51820;48.374;10.930;2023-02-26T15:02:20;4.20;49.20
65235;DHT22;51820;48.374;10.930;2023-02-26T15:05:14;4.10;49.40
65235;DHT22;51820;48.374;10.930;2023-02-26T15:08:01;4.10;49.40
65235;DHT22;51820;48.374;10.930;2023-02-26T15:10:40;4.00;50.90
65235;DHT22;51820;48.374;10.930;2023-02-26T15:13:33;3.90;51.60
65235;DHT22;51820;48.374;10.930;2023-02-26T15:16:13;3.80;52.00
65235;DHT22;51820;48.374;10.930;2023-02-26T15:18:58;3.80;52.20
65235;DHT22;51820;48.374;10.930;2023-02-26T15:21:34;3.80;52.60
65235;DHT22;51820;48.374;10.930;2023-02-26T15:24:13;3.80;53.00
65235;DHT22;51820;48.374;10.930;2023-02-26T15:26:54;3.80;52.70
65235;DHT22;51820;48.374;10.930;2023-02-26T15:29:29;3.80;52.60
65235;DHT22;51820;48.374;10.930;2023-02-26T15:32:01;3.80;53.80
65235;DHT22;51820;48.374;10.930;2023-02-26T15:44:30;3.20;54.00
65235;DHT22;51820;48.374;10.930;2023-02-26T15:47:01;3.10;54.30
65235;DHT22;51820;48.374;10.930;2023-02-26T15:49:35;3.20;54.20
65235;DHT22;51820;48.374;10.930;2023-02-26T15:52:15;3.10;54.30
65235;DHT22;51820;48.374;10.930;2023-02-26T15:54:47;3.10;54.40
65235;DHT22;51820;48.374;10.930;2023-02-26T15:57:18;3.10;54.80
65235;DHT22;51820;48.374;10.930;2023-02-26T15:59:49;3.10;55.30
65235;DHT22;51820;48.374;10.930;2023-02-26T16:02:20;3.10;54.90
65235;DHT22;51820;48.374;10.930;2023-02-26T16:09:49;3.00;55.60
65235;DHT22;51820;48.374;10.930;2023-02-26T16:12:19;3.00;55.40
65235;DHT22;51820;48.374;10.930;2023-02-26T16:14:52;3.00;55.60
65235;DHT22;51820;48.374;10.930;2023-02-26T16:17:25;3.00;55.60
65235;DHT22;51820;48.374;10.930;2023-02-26T16:19:55;3.00;56.00
65235;DHT22;51820;48.374;10.930;2023-02-26T16:22:28;3.00;56.00
65235;DHT22;51820;48.374;10.930;2023-02-26T16:24:59;3.00;56.10
65235;DHT22;51820;48.374;10.930;2023-02-26T16:27:29;2.90;56.30
65235;DHT22;51820;48.374;10.930;2023-02-26T16:30:04;-0.10;54.60
65235;DHT22;51820;48.374;10.930;2023-02-26T16:32:33;2.90;56.30
65235;DHT22;51820;48.374;10.930;2023-02-26T16:35:09;2.90;56.60
65235;DHT22;51820;48.374;10.930;2023-02-26T16:37:47;2.90;56.90
65235;DHT22;51820;48.374;10.930;2023-02-26T16:40:26;2.90;57.80
65235;DHT22;51820;48.374;10.930;2023-02-26T16:43:00;2.80;57.80
65235;DHT22;51820;48.374;10.930;2023-02-26T16:46:01;2.80;57.60
65235;DHT22;51820;48.374;10.930;2023-02-26T16:48:36;4.60;58.30
65235;DHT22;51820;48.374;10.930;2023-02-26T16:51:11;2.70;57.30
65235;DHT22;51820;48.374;10.930;2023-02-26T16:53:43;2.70;57.50
65235;DHT22;51820;48.374;10.930;2023-02-26T16:56:18;2.60;57.60
65235;DHT22;51820;48.374;10.930;2023-02-26T16:58:50;2.60;57.70
65235;DHT22;51820;48.374;10.930;2023-02-26T17:01:23;2.60;58.00
65235;DHT22;51820;48.374;10.930;2023-02-26T17:03:56;2.50;58.30
65235;DHT22;51820;48.374;10.930;2023-02-26T17:06:27;2.50;58.40
65235;DHT22;51820;48.374;10.930;2023-02-26T17:08:59;2.40;58.60
65235;DHT22;51820;48.374;10.930;2023-02-26T17:11:29;2.40;58.60
65235;DHT22;51820;48.374;10.930;2023-02-26T17:14:12;2.40;58.40
65235;DHT22;51820;48.374;10.930;2023-02-26T17:16:46;2.40;58.90
65235;DHT22;51820;48.374;10.930;2023-02-26T17:21:45;2.30;59.10
65235;DHT22;51820;48.374;10.930;2023-02-26T17:24:16;2.30;59.20
65235;DHT22;51820;48.374;10.930;2023-02-26T17:26:46;2.30;59.40
65235;DHT22;51820;48.374;10.930;2023-02-26T17:29:17;2.30;60.20
65235;DHT22;51820;48.374;10.930;2023-02-26T17:31:49;2.30;59.40
65235;DHT22;51820;48.374;10.930;2023-02-26T17:34:20;2.30;59.70
65235;DHT22;51820;48.374;10.930;2023-02-26T17:49:20;-0.10;59.60
65235;DHT22;51820;48.374;10.930;2023-02-26T17:56:58;2.20;61.60
65235;DHT22;51820;48.374;10.930;2023-02-26T18:04:56;2.10;60.80
65235;DHT22;51820;48.374;10.930;2023-02-26T18:10:42;2.10;61.00
65235;DHT22;51820;48.374;10.930;2023-02-26T18:15:55;2.10;61.20
65235;DHT22;51820;48.374;10.930;2023-02-26T18:18:26;2.00;65.90
65235;DHT22;51820;48.374;10.930;2023-02-26T18:21:07;2.00;62.30
65235;DHT22;51820;48.374;10.930;2023-02-26T18:23:43;2.00;63.50
65235;DHT22;51820;48.374;10.930;2023-02-26T18:26:16;2.00;62.20
65235;DHT22;51820;48.374;10.930;2023-02-26T18:34:32;1.90;62.70
65235;DHT22;51820;48.374;10.930;2023-02-26T18:37:02;1.90;62.60
65235;DHT22;51820;48.374;10.930;2023-02-26T18:52:04;1.90;62.90
65235;DHT22;51820;48.374;10.930;2023-02-26T19:02:03;1.80;63.20
65235;DHT22;51820;48.374;10.930;2023-02-26T19:04:35;-1.60;63.90
65235;DHT22;51820;48.374;10.930;2023-02-26T19:07:28;1.80;63.30
65235;DHT22;51820;48.374;10.930;2023-02-26T19:10:29;1.80;65.10
65235;DHT22;51820;48.374;10.930;2023-02-26T19:13:33;2.50;65.90
65235;DHT22;51820;48.374;10.930;2023-02-26T19:27:16;1.60;65.20
65235;DHT22;51820;48.374;10.930;2023-02-26T19:30:10;1.60;65.00
65235;DHT22;51820;48.374;10.930;2023-02-26T19:33:33;1.50;65.30
65235;DHT22;51820;48.374;10.930;2023-02-26T19:36:36;1.60;65.20
65235;DHT22;51820;48.374;10.930;2023-02-26T19:39:22;1.60;66.20
65235;DHT22;51820;48.374;10.930;2023-02-26T19:41:59;2.10;65.10
65235;DHT22;51820;48.374;10.930;2023-02-26T19:56:59;1.50;64.50
65235;DHT22;51820;48.374;10.930;2023-02-26T20:01:59;1.50;64.50
65235;DHT22;51820;48.374;10.930;2023-02-26T20:04:41;1.50;64.40
65235;DHT22;51820;48.374;10.930;2023-02-26T20:10:11;1.50;64.00
65235;DHT22;51820;48.374;10.930;2023-02-26T20:12:56;0.60;64.00
65235;DHT22;51820;48.374;10.930;2023-02-26T20:15:40;3.20;64.80
65235;DHT22;51820;48.374;10.930;2023-02-26T20:20:54;1.50;66.10
65235;DHT22;51820;48.374;10.930;2023-02-26T20:25:49;1.50;63.90
65235;DHT22;51820;48.374;10.930;2023-02-26T20:28:01;-2.00;65.50
65235;DHT22;51820;48.374;10.930;2023-02-26T20:35:33;0.20;65.70
65235;DHT22;51820;48.374;10.930;2023-02-26T20:38:25;1.50;64.70
65235;DHT22;51820;48.374;10.930;2023-02-26T20:41:00;-1.00;65.10
65235;DHT22;51820;48.374;10.930;2023-02-26T20:43:59;1.40;64.40
65235;DHT22;51820;48.374;10.930;2023-02-26T20:49:59;2.00;66.10
65235;DHT22;51820;48.374;10.930;2023-02-26T20:52:36;1.50;64.00
65235;DHT22;51820;48.374;10.930;2023-02-26T20:56:28;1.50;64.10
65235;DHT22;51820;48.374;10.930;2023-02-26T21:03:32;0.80;64.50
65235;DHT22;51820;48.374;10.930;2023-02-26T21:11:21;1.40;65.40
65235;DHT22;51820;48.374;10.930;2023-02-26T21:12:31;1.40;65.00
65235;DHT22;51820;48.374;10.930;2023-02-26T21:16:31;1.40;64.10
65235;DHT22;51820;48.374;10.930;2023-02-26T21:19:18;1.60;64.50
65235;DHT22;51820;48.374;10.930;2023-02-26T21:22:21;1.40;63.90
65235;DHT22;51820;48.374;10.930;2023-02-26T21:29:25;1.30;63.70
65235;DHT22;51820;48.374;10.930;2023-02-26T21:32:04;0.90;63.30
65235;DHT22;51820;48.374;10.930;2023-02-26T21:35:44;1.30;63.90
65235;DHT22;51820;48.374;10.930;2023-02-26T21:39:13;1.30;63.60
65235;DHT22;51820;48.374;10.930;2023-02-26T21:42:18;1.20;63.50
65235;DHT22;51820;48.374;10.930;2023-02-26T21:45:37;1.20;63.80
65235;DHT22;51820;48.374;10.930;2023-02-26T21:51:31;1.20;65.30
65235;DHT22;51820;48.374;10.930;2023-02-26T21:59:16;1.30;64.40
65235;DHT22;51820;48.374;10.930;2023-02-26T22:06:42;1.20;64.10
65235;DHT22;51820;48.374;10.930;2023-02-26T22:24:03;1.20;63.50
65235;DHT22;51820;48.374;10.930;2023-02-26T22:41:31;1.10;63.60
65235;DHT22;51820;48.374;10.930;2023-02-26T22:58:54;1.10;63.80
65235;DHT22;51820;48.374;10.930;2023-02-26T23:16:16;1.10;63.60
65235;DHT22;51820;48.374;10.930;2023-02-26T23:33:41;1.00;63.20
65235;DHT22;51820;48.374;10.930;2023-02-26T23:51:03;0.90;62.90
65235;DHT22;51820;48.374;10.930;2023-02-26T23:58:29;0.90;62.70
